Time;durP1;ratioP1;P1;durP2;ratioP2;P2;SDS_P1;SDS_P2;PMS_P1;PMS_P2;Temp;Humidity;BMP_temperature;BMP_pressure;BME280_temperature;BME280_humidity;BME280_pressure;Samples;Min_cycle;Max_cycle;Signal;HPM_P1;HPM_P2
2021/09/08 00:01:36;;;;;;;8.05;6.70;;;;;;;20.46;44.33;100902.60;2536512;77;25896;-82
2021/09/08 00:05:28;;;;;;;11.50;6.87;;;;;;;20.42;44.46;100910.15;2534607;77;30864;-79
2021/09/08 00:08:48;;;;;;;11.80;7.08;;;;;;;20.39;44.58;100912.82;2530044;77;25641;-84
2021/09/08 00:12:09;;;;;;;7.83;6.78;;;;;;;20.34;44.67;100906.67;2541692;77;30978;-84
2021/09/08 00:15:31;;;;;;;15.38;6.42;;;;;;;20.32;44.79;100911.08;2535834;77;25346;-75
2021/09/08 00:19:09;;;;;;;8.28;7.40;;;;;;;20.28;44.89;100907.58;2517994;78;25137;-85
2021/09/08 00:22:30;;;;;;;13.20;7.47;;;;;;;20.25;44.98;100911.16;2513549;78;35224;-79
2021/09/08 00:25:51;;;;;;;9.58;7.60;;;;;;;20.22;45.04;100908.98;2519347;78;25656;-81
2021/09/08 00:29:15;;;;;;;9.85;7.15;;;;;;;20.17;45.10;100911.64;2518161;78;25557;-80
2021/09/08 00:32:49;;;;;;;10.38;7.37;;;;;;;20.16;45.13;100917.84;2522441;78;25603;-74
2021/09/08 00:36:18;;;;;;;12.63;7.58;;;;;;;20.14;45.18;100917.41;2520816;78;25643;-82
2021/09/08 00:39:41;;;;;;;9.53;7.28;;;;;;;20.14;45.15;100916.08;2517059;78;25641;-82
2021/09/08 00:43:24;;;;;;;8.70;7.33;;;;;;;20.09;45.30;100914.80;2519787;77;25894;-81
2021/09/08 00:46:46;;;;;;;11.73;7.70;;;;;;;20.07;45.28;100923.64;2421057;81;25782;-75
2021/09/08 00:50:22;;;;;;;10.15;7.17;;;;;;;20.02;45.36;100919.70;2419741;80;26290;-74
2021/09/08 00:53:46;;;;;;;14.85;7.83;;;;;;;20.00;45.41;100918.83;2425986;81;25724;-82
2021/09/08 00:57:13;;;;;;;9.08;8.03;;;;;;;19.97;45.43;100916.20;2430737;79;25753;-75
2021/09/08 01:00:46;;;;;;;10.85;7.55;;;;;;;19.95;45.49;100908.73;2448964;80;25681;-75
2021/09/08 01:04:34;;;;;;;10.68;7.83;;;;;;;19.88;45.55;100911.86;2449019;79;25574;-86
2021/09/08 01:07:56;;;;;;;9.58;6.90;;;;;;;19.87;45.54;100919.34;2410583;81;26146;-80
2021/09/08 01:11:40;;;;;;;9.15;8.25;;;;;;;19.88;45.57;100913.19;2416523;81;25766;-84
2021/09/08 01:15:14;;;;;;;9.60;7.67;;;;;;;19.88;45.59;100917.56;2380141;80;25581;-73
2021/09/08 01:19:05;;;;;;;7.83;7.00;;;;;;;19.86;45.65;100912.75;2379396;82;26409;-74
2021/09/08 01:23:09;;;;;;;8.25;7.40;;;;;;;19.84;45.70;100918.03;2383877;81;25275;-74
2021/09/08 01:26:38;;;;;;;17.60;8.03;;;;;;;19.82;45.75;100921.16;2412523;81;26108;-75
2021/09/08 01:30:06;;;;;;;12.70;7.85;;;;;;;19.77;45.75;100910.58;2411360;81;25682;-74
2021/09/08 01:33:34;;;;;;;9.93;8.13;;;;;;;19.74;45.79;100913.69;2312789;84;25657;-74
2021/09/08 01:36:56;;;;;;;13.40;8.03;;;;;;;19.70;45.87;100910.63;2335018;84;25874;-79
2021/09/08 01:40:18;;;;;;;13.38;8.70;;;;;;;19.68;45.92;100915.06;2396558;82;25744;-87
2021/09/08 01:43:45;;;;;;;11.65;7.78;;;;;;;19.67;45.95;100906.22;2400303;80;25733;-74
2021/09/08 01:47:06;;;;;;;10.18;7.47;;;;;;;19.66;45.95;100907.57;2482187;79;25738;-77
2021/09/08 01:50:39;;;;;;;14.47;9.03;;;;;;;19.61;46.01;100905.34;2489538;79;25622;-74
2021/09/08 01:54:08;;;;;;;10.45;7.75;;;;;;;19.56;46.06;100906.70;2477625;79;25671;-78
2021/09/08 01:58:06;;;;;;;13.78;8.80;;;;;;;19.57;46.13;100909.36;2474458;79;25696;-78
2021/09/08 02:01:26;;;;;;;12.33;8.55;;;;;;;19.53;46.10;100899.66;2475575;79;25575;-74
2021/09/08 02:05:03;;;;;;;9.13;8.15;;;;;;;19.50;46.19;100908.05;2469276;79;31362;-74
2021/09/08 02:08:56;;;;;;;12.98;8.80;;;;;;;19.48;46.22;100908.52;2398806;82;26064;-74
2021/09/08 02:12:17;;;;;;;12.45;7.90;;;;;;;19.44;46.29;100906.74;2375257;82;25864;-74
2021/09/08 02:15:52;;;;;;;11.80;8.13;;;;;;;19.41;46.37;100901.50;2237774;85;25906;-78
2021/09/08 02:19:28;;;;;;;11.73;7.65;;;;;;;19.40;46.41;100909.84;2344976;83;25682;-72
2021/09/08 02:22:49;;;;;;;11.40;8.20;;;;;;;19.36;46.43;100898.86;2343539;83;25757;-84
2021/09/08 02:26:23;;;;;;;17.52;9.30;;;;;;;19.37;46.51;100903.69;2343548;83;25921;-77
2021/09/08 02:29:51;;;;;;;12.33;7.75;;;;;;;19.34;46.53;100899.32;2352309;84;26193;-83
2021/09/08 02:33:12;;;;;;;9.40;8.45;;;;;;;19.30;46.62;100891.84;2324018;84;29061;-74
2021/09/08 02:36:33;;;;;;;15.55;8.00;;;;;;;19.29;46.71;100898.45;2319663;84;31362;-74
2021/09/08 02:39:59;;;;;;;10.95;7.87;;;;;;;19.25;46.76;100893.62;2319025;84;25724;-74
2021/09/08 02:43:29;;;;;;;12.98;7.72;;;;;;;19.25;46.77;100901.55;2320649;83;25709;-74
2021/09/08 02:47:05;;;;;;;17.45;8.80;;;;;;;19.25;46.82;100898.03;2324361;84;25564;-83
2021/09/08 02:50:38;;;;;;;13.83;8.70;;;;;;;19.23;46.85;100905.95;2311783;84;25705;-74
2021/09/08 02:53:58;;;;;;;11.20;8.23;;;;;;;19.20;46.89;100902.44;2333122;83;25813;-83
2021/09/08 02:57:19;;;;;;;10.90;7.80;;;;;;;19.16;47.03;100901.56;2389246;81;31422;-73
2021/09/08 03:00:40;;;;;;;9.68;8.50;;;;;;;19.16;47.03;100901.56;2411249;80;25670;-74
2021/09/08 03:04:03;;;;;;;12.13;7.95;;;;;;;19.14;46.93;100902.03;2409060;81;25489;-75
2021/09/08 03:07:24;;;;;;;10.45;7.53;;;;;;;19.09;46.97;100903.35;2413949;80;26500;-75
2021/09/08 03:10:54;;;;;;;9.28;7.85;;;;;;;19.08;47.11;100912.17;2442514;80;30981;-77
2021/09/08 03:15:09;;;;;;;16.40;8.60;;;;;;;19.07;47.14;100906.91;2447358;79;26010;-86
2021/09/08 03:18:25;;;;;;;18.30;9.80;;;;;;;19.02;47.13;100902.94;2439166;80;25881;-80
2021/09/08 03:21:46;;;;;;;10.55;7.78;;;;;;;19.01;47.22;100908.23;2449844;80;31333;-86
2021/09/08 03:25:09;;;;;;;12.47;8.65;;;;;;;18.99;47.24;100906.91;2443102;80;30933;-83
2021/09/08 03:28:29;;;;;;;17.87;9.15;;;;;;;18.98;47.23;100905.16;2448895;80;25940;-75
2021/09/08 03:31:50;;;;;;;12.18;8.43;;;;;;;18.94;47.25;100900.77;2446588;80;30893;-77
2021/09/08 03:35:14;;;;;;;10.32;7.92;;;;;;;18.89;47.34;100902.53;2451700;80;31324;-79
2021/09/08 03:38:35;;;;;;;17.42;8.13;;;;;;;18.87;47.41;100902.55;2448242;80;25740;-81
2021/09/08 03:42:11;;;;;;;11.68;8.25;;;;;;;18.84;47.44;100899.91;2445464;80;30973;-81
2021/09/08 03:46:06;;;;;;;9.75;8.18;;;;;;;18.82;47.55;100897.70;2445072;79;25608;-75
2021/09/08 03:49:26;;;;;;;13.40;8.10;;;;;;;18.80;47.60;100901.25;2450734;80;25627;-75
2021/09/08 03:52:53;;;;;;;8.70;7.47;;;;;;;18.78;47.69;100900.36;2448477;79;32340;-76
2021/09/08 03:56:57;;;;;;;10.85;8.60;;;;;;;18.76;47.74;100902.11;2446806;80;25629;-85
2021/09/08 04:00:28;;;;;;;11.45;8.43;;;;;;;18.74;47.78;100903.45;2446796;79;25647;-75
2021/09/08 04:04:07;;;;;;;8.75;7.28;;;;;;;18.71;47.79;100906.50;2449257;80;26117;-84
2021/09/08 04:07:37;;;;;;;;;;;;;;;18.68;47.83;100903.86;2427885;80;25623;-76
2021/09/08 04:11:08;;;;;;;11.65;8.05;;;;;;;18.66;47.85;100901.20;2360659;83;25737;-79
2021/09/08 04:14:31;;;;;;;9.35;8.35;;;;;;;18.59;47.88;100895.50;2361363;82;25931;-75
2021/09/08 04:17:52;;;;;;;10.70;8.38;;;;;;;18.59;47.91;100902.09;2362539;83;25968;-75
2021/09/08 04:21:13;;;;;;;15.75;8.93;;;;;;;18.59;47.97;100905.61;2359931;83;25657;-77
2021/09/08 04:24:37;;;;;;;12.78;8.68;;;;;;;18.59;48.04;100896.81;2359019;83;26040;-75
2021/09/08 04:28:06;;;;;;;12.93;9.08;;;;;;;18.59;48.05;100910.89;2363284;83;25665;-79
2021/09/08 04:31:26;;;;;;;13.05;8.03;;;;;;;18.56;48.08;100904.33;2365016;83;25798;-86
2021/09/08 04:34:48;;;;;;;11.90;7.83;;;;;;;18.56;48.15;100899.45;2397793;80;30896;-75
2021/09/08 04:38:09;;;;;;;11.48;8.58;;;;;;;18.58;48.15;100906.95;2448107;80;25609;-84
2021/09/08 04:41:56;;;;;;;16.17;8.78;;;;;;;18.60;48.17;100910.04;2444890;80;31319;-76
2021/09/08 04:45:16;;;;;;;9.68;8.33;;;;;;;18.63;48.15;100911.80;2445696;80;25273;-81
2021/09/08 04:48:40;;;;;;;11.60;8.63;;;;;;;18.63;48.20;100913.12;2446292;80;31420;-75
2021/09/08 04:52:15;;;;;;;16.07;8.85;;;;;;;18.64;48.18;100901.22;2444955;80;25604;-78
2021/09/08 04:56:17;;;;;;;11.85;8.30;;;;;;;18.65;48.18;100910.02;2430538;80;26129;-75
2021/09/08 04:59:43;;;;;;;15.50;8.35;;;;;;;18.63;48.23;100914.45;2369010;83;26098;-84
2021/09/08 05:03:10;;;;;;;15.35;8.43;;;;;;;18.68;48.25;100911.78;2372984;82;25626;-74
2021/09/08 05:06:50;;;;;;;15.08;8.55;;;;;;;18.71;48.23;100911.34;2369345;83;25609;-83
2021/09/08 05:10:11;;;;;;;11.83;8.55;;;;;;;18.71;48.21;100911.78;2338909;82;25655;-84
2021/09/08 05:13:48;;;;;;;12.47;8.35;;;;;;;18.71;48.26;100913.11;2373381;82;31311;-74
2021/09/08 05:17:09;;;;;;;10.32;8.48;;;;;;;18.69;48.20;100909.58;2372281;83;25707;-73
2021/09/08 05:20:43;;;;;;;;;;;;;;;;;;;;;
2021/09/08 05:24:09;;;;;;;12.03;7.97;;;;;;;18.68;48.30;100919.70;2402240;81;25667;-87
2021/09/08 05:27:46;;;;;;;12.33;7.85;;;;;;;18.67;48.37;100912.68;2377835;81;25702;-76
2021/09/08 05:34:56;;;;;;;14.43;9.60;;;;;;;18.72;48.37;100911.80;2318039;83;25824;-76
2021/09/08 05:38:29;;;;;;;12.35;8.20;;;;;;;18.73;48.42;100917.55;2318466;83;25747;-87
2021/09/08 05:41:52;;;;;;;11.43;8.53;;;;;;;18.72;48.42;100915.77;2318172;85;25887;-86
2021/09/08 05:45:13;;;;;;;15.48;8.50;;;;;;;18.72;48.48;100922.37;2321684;85;25829;-85
2021/09/08 05:48:37;;;;;;;12.80;8.63;;;;;;;18.75;48.44;100918.41;2319425;85;31619;-75
2021/09/08 05:51:58;;;;;;;13.78;9.28;;;;;;;18.79;48.42;100923.24;2318490;85;25753;-81
2021/09/08 05:55:19;;;;;;;13.35;9.58;;;;;;;18.83;48.46;100920.61;2329807;83;25523;-75
2021/09/08 05:58:42;;;;;;;14.87;10.63;;;;;;;18.88;48.44;100926.75;2336034;84;31925;-75
2021/09/08 06:02:21;;;;;;;13.30;8.63;;;;;;;18.90;48.47;100917.93;2334763;84;25906;-79
2021/09/08 06:05:53;;;;;;;14.80;9.38;;;;;;;18.96;48.52;100925.85;2331554;84;25678;-75
2021/09/08 06:09:32;;;;;;;14.03;9.78;;;;;;;19.00;48.54;100918.35;2335210;84;25818;-85
2021/09/08 06:13:02;;;;;;;15.72;9.75;;;;;;;19.05;48.56;100916.14;2416287;81;25590;-85
2021/09/08 06:16:33;;;;;;;16.30;9.75;;;;;;;19.10;48.54;100918.77;2426007;81;25777;-77
2021/09/08 06:19:59;;;;;;;21.62;10.35;;;;;;;19.16;48.50;100913.47;2309365;85;25709;-81
2021/09/08 06:23:29;;;;;;;25.08;9.53;;;;;;;19.21;48.51;100909.06;2318085;84;25937;-76
2021/09/08 06:26:50;;;;;;;19.42;9.95;;;;;;;19.28;48.50;100916.52;2315334;85;25690;-81
2021/09/08 06:30:14;;;;;;;25.45;12.03;;;;;;;19.37;48.44;100915.14;2311040;85;31093;-86
2021/09/08 06:33:36;;;;;;;24.37;11.40;;;;;;;19.42;48.44;100913.38;2314789;85;26020;-82
2021/09/08 06:36:57;;;;;;;22.80;10.53;;;;;;;19.52;48.45;100915.09;2315702;84;25505;-82
2021/09/08 06:40:18;;;;;;;19.35;11.00;;;;;;;19.63;48.38;100913.75;2311710;85;31384;-77
2021/09/08 06:43:39;;;;;;;18.05;9.53;;;;;;;19.77;48.32;100911.02;2363270;81;25689;-79
2021/09/08 06:47:00;;;;;;;16.70;10.15;;;;;;;19.88;48.29;100914.51;2435363;80;25781;-76
2021/09/08 06:50:21;;;;;;;19.98;9.63;;;;;;;19.97;48.16;100918.84;2423236;80;30937;-76
2021/09/08 06:53:45;;;;;;;19.17;10.08;;;;;;;20.15;48.15;100916.51;2417956;78;25686;-76
2021/09/08 06:57:21;;;;;;;18.98;10.23;;;;;;;22.16;47.09;100920.06;2395059;79;26107;-76
2021/09/08 07:00:42;;;;;;;18.65;9.85;;;;;;;25.19;43.58;100933.99;2414912;81;26038;-76
2021/09/08 07:04:11;;;;;;;25.15;10.15;;;;;;;27.32;40.34;100943.66;2428680;80;25873;-78
2021/09/08 07:07:32;;;;;;;17.67;9.50;;;;;;;28.82;37.83;100957.82;2440533;79;25375;-76
2021/09/08 07:10:53;;;;;;;12.13;9.30;;;;;;;30.44;35.83;100960.19;2440520;80;26429;-76
2021/09/08 07:14:18;;;;;;;17.77;9.60;;;;;;;31.59;33.86;100966.36;2441837;80;25645;-75
2021/09/08 07:17:39;;;;;;;14.47;8.93;;;;;;;32.93;32.31;100970.36;2445731;80;26070;-87
2021/09/08 07:21:01;;;;;;;11.45;8.15;;;;;;;34.48;30.77;100978.13;2442303;80;26316;-77
2021/09/08 07:24:44;;;;;;;21.73;11.45;;;;;;;35.83;29.32;100980.95;2410032;80;25680;-77
2021/09/08 07:28:11;;;;;;;28.75;10.18;;;;;;;36.59;27.13;100978.02;2434932;81;25660;-74
2021/09/08 07:31:57;;;;;;;20.62;10.23;;;;;;;37.00;25.08;100979.91;2432500;80;25457;-83
2021/09/08 07:35:57;;;;;;;21.40;10.68;;;;;;;37.25;24.48;100987.84;2399968;82;25498;-75
2021/09/08 07:39:18;;;;;;;14.63;10.53;;;;;;;37.88;23.80;100992.84;2420468;79;25849;-77
2021/09/08 07:42:41;;;;;;;16.62;9.55;;;;;;;38.59;21.74;100996.05;2428075;78;26032;-74
2021/09/08 07:46:13;;;;;;;18.07;8.85;;;;;;;38.68;21.88;100988.47;2427491;80;26150;-75
2021/09/08 07:49:43;;;;;;;17.55;10.20;;;;;;;39.12;21.47;100986.52;2447064;79;25257;-75
2021/09/08 07:53:08;;;;;;;16.55;10.70;;;;;;;39.62;20.92;100992.09;2456231;79;25691;-88
2021/09/08 07:56:32;;;;;;;12.63;9.38;;;;;;;39.81;20.85;100998.16;2464003;80;26009;-71
2021/09/08 07:59:53;;;;;;;12.80;9.03;;;;;;;40.54;20.12;100998.77;2404637;80;35292;-72
2021/09/08 08:03:14;;;;;;;15.17;9.20;;;;;;;41.00;19.58;100999.90;2463009;79;25704;-75
2021/09/08 08:06:35;;;;;;;13.13;8.70;;;;;;;41.27;18.27;100999.15;2406453;81;25690;-75
2021/09/08 08:10:09;;;;;;;14.68;9.78;;;;;;;41.09;18.43;100998.20;2462892;78;25750;-75
2021/09/08 08:13:58;;;;;;;22.32;8.88;;;;;;;41.38;18.40;100994.89;2394971;80;25615;-75
2021/09/08 08:17:19;;;;;;;13.72;7.95;;;;;;;41.90;17.73;101005.38;2358385;83;25669;-80
2021/09/08 08:20:40;;;;;;;16.57;8.43;;;;;;;42.08;18.02;101005.41;2371883;82;25715;-78
2021/09/08 08:24:05;;;;;;;14.13;8.35;;;;;;;42.35;17.51;100999.05;2396159;82;25772;-86
2021/09/08 08:27:25;;;;;;;19.87;7.72;;;;;;;42.44;17.31;100996.23;2402668;81;25739;-77
2021/09/08 08:30:46;;;;;;;11.08;7.20;;;;;;;42.58;17.41;101001.67;2404679;81;25629;-74
2021/09/08 08:34:07;;;;;;;10.23;6.95;;;;;;;42.90;16.91;101000.28;2408377;81;25653;-84
2021/09/08 08:37:29;;;;;;;8.40;7.37;;;;;;;42.28;15.93;100998.80;2408083;81;25674;-74
2021/09/08 08:40:50;;;;;;;11.90;7.12;;;;;;;42.19;16.71;101001.06;2407887;82;25680;-75
2021/09/08 08:44:13;;;;;;;14.43;6.47;;;;;;;41.72;16.56;100996.57;2408641;82;25648;-78
2021/09/08 08:47:45;;;;;;;11.45;6.92;;;;;;;42.02;16.96;100997.79;2406883;80;25994;-78
2021/09/08 08:51:31;;;;;;;8.93;6.53;;;;;;;42.60;16.63;100998.27;2438012;80;25642;-86
2021/09/08 08:55:08;;;;;;;11.53;6.40;;;;;;;42.09;15.96;100997.05;2466977;79;25619;-75
2021/09/08 08:58:42;;;;;;;7.28;6.58;;;;;;;42.00;16.74;100991.11;2385224;81;26434;-74
2021/09/08 09:02:34;;;;;;;11.15;5.55;;;;;;;42.37;16.74;101003.88;2479833;77;25666;-74
2021/09/08 09:06:19;;;;;;;10.70;6.60;;;;;;;42.77;16.64;100989.71;2399477;81;25726;-74
2021/09/08 09:09:42;;;;;;;12.05;7.67;;;;;;;42.97;16.21;100993.13;2320707;84;25821;-73
2021/09/08 09:13:44;;;;;;;11.38;7.50;;;;;;;43.14;16.49;100992.24;2358399;83;25438;-74
2021/09/08 09:17:14;;;;;;;23.67;8.80;;;;;;;43.36;16.43;100982.58;2314179;84;25520;-74
2021/09/08 09:20:42;;;;;;;10.05;7.62;;;;;;;43.17;15.85;100988.81;2355415;83;25600;-76
2021/09/08 09:24:09;;;;;;;10.90;7.60;;;;;;;43.27;16.20;100985.44;2329464;83;25903;-76
2021/09/08 09:27:42;;;;;;;11.88;6.65;;;;;;;43.34;16.04;100987.39;2374792;82;26010;-75
2021/09/08 09:31:16;;;;;;;16.77;7.40;;;;;;;42.51;16.18;100989.61;2385103;81;25727;-73
2021/09/08 09:34:41;;;;;;;8.75;7.80;;;;;;;42.37;15.95;100987.43;2292003;84;25744;-74
2021/09/08 09:38:07;;;;;;;13.88;7.42;;;;;;;41.81;16.48;100987.08;2293798;85;25690;-75
2021/09/08 09:41:38;;;;;;;;;;;;;;;41.51;17.03;100987.23;2266307;85;25740;-74
2021/09/08 09:45:27;;;;;;;10.75;6.87;;;;;;;41.72;16.91;100978.77;2229947;87;25799;-75
2021/09/08 09:49:06;;;;;;;14.35;8.88;;;;;;;41.86;17.20;100977.94;2235599;88;25945;-75
2021/09/08 09:52:47;;;;;;;13.88;7.30;;;;;;;41.81;17.02;100976.98;2231798;87;26404;-75
2021/09/08 09:56:28;;;;;;;9.53;5.83;;;;;;;41.32;16.40;100968.11;2313849;83;25812;-74
2021/09/08 10:00:25;;;;;;;6.97;6.03;;;;;;;40.36;17.52;100951.63;2243296;87;25757;-74
2021/09/08 10:04:09;;;;;;;8.68;5.42;;;;;;;40.13;16.88;100955.13;2251715;86;25687;-75
2021/09/08 10:07:35;;;;;;;9.60;5.30;;;;;;;39.05;18.24;100948.01;2274785;85;25748;-74
2021/09/08 10:11:05;;;;;;;9.78;6.05;;;;;;;39.46;18.21;100954.92;2279061;86;25719;-76
2021/09/08 10:14:52;;;;;;;14.65;5.97;;;;;;;39.44;18.00;100949.58;2275217;86;26279;-75
2021/09/08 10:18:14;;;;;;;10.25;6.17;;;;;;;39.51;18.11;100941.71;2276717;86;25618;-75
2021/09/08 10:21:54;;;;;;;7.65;5.95;;;;;;;39.94;18.27;100944.68;2276724;86;25308;-74
2021/09/08 10:25:22;;;;;;;10.43;6.17;;;;;;;39.70;18.29;100946.38;2274478;86;25670;-75
2021/09/08 10:28:46;;;;;;;9.00;5.80;;;;;;;39.77;18.55;100944.85;2270916;86;25320;-74
2021/09/08 10:32:13;;;;;;;12.68;6.50;;;;;;;39.79;18.26;100943.69;2268554;86;25695;-74
2021/09/08 10:35:49;;;;;;;9.45;5.62;;;;;;;39.92;18.51;100933.88;2291891;81;25252;-78
2021/09/08 10:39:17;;;;;;;12.30;5.90;;;;;;;39.96;18.51;100939.41;2478265;77;25793;-75
2021/09/08 10:42:57;;;;;;;10.78;5.80;;;;;;;40.06;18.77;100942.16;2539234;76;25661;-74
2021/09/08 10:46:18;;;;;;;7.97;5.78;;;;;;;39.60;18.12;100932.70;2552883;77;25682;-76
2021/09/08 10:49:50;;;;;;;13.05;6.62;;;;;;;38.66;18.83;100928.63;2551220;76;25594;-74
2021/09/08 10:53:48;;;;;;;12.60;6.17;;;;;;;38.52;18.89;100924.87;2536379;77;25583;-75
2021/09/08 10:57:09;;;;;;;11.63;6.03;;;;;;;38.40;18.61;100920.45;2530877;77;25932;-74
2021/09/08 11:01:06;;;;;;;7.45;5.92;;;;;;;36.70;19.70;100911.12;2536229;77;25723;-77
2021/09/08 11:05:14;;;;;;;8.20;5.50;;;;;;;37.01;20.51;100903.66;2503660;77;25915;-76
2021/09/08 11:08:44;;;;;;;10.58;5.72;;;;;;;37.30;20.87;100881.44;2490089;77;25635;-75
2021/09/08 11:12:42;;;;;;;8.58;6.22;;;;;;;37.89;20.73;100904.73;2499485;79;25739;-75
2021/09/08 11:16:24;;;;;;;9.05;5.62;;;;;;;38.15;20.60;100899.88;2501494;78;25731;-75
2021/09/08 11:24:04;;;;;;;7.08;6.00;;;;;;;38.48;20.14;100897.03;2487224;78;25254;-75
2021/09/08 11:27:26;;;;;;;15.97;6.60;;;;;;;38.56;20.28;100892.77;2494883;79;26332;-76
2021/09/08 11:34:34;;;;;;;12.58;6.17;;;;;;;38.35;19.68;100887.28;2406237;81;25776;-75
2021/09/08 11:37:53;;;;;;;7.30;6.03;;;;;;;38.26;19.65;100888.92;2381982;82;25733;-75
2021/09/08 11:41:17;;;;;;;8.50;6.35;;;;;;;38.12;19.93;100885.16;2403595;81;25708;-74
2021/09/08 11:44:39;;;;;;;7.78;6.15;;;;;;;38.17;20.24;100885.61;2406266;82;25648;-75
2021/09/08 11:48:00;;;;;;;9.98;5.90;;;;;;;38.22;20.27;100882.02;2406491;81;25795;-75
2021/09/08 11:51:25;;;;;;;7.10;6.40;;;;;;;38.27;20.36;100881.11;2404517;81;25645;-77
2021/09/08 11:54:58;;;;;;;8.85;6.10;;;;;;;38.08;20.23;100875.02;2418357;79;25722;-74
2021/09/08 11:58:36;;;;;;;8.00;6.42;;;;;;;38.07;20.27;100865.60;2374111;81;26277;-74
2021/09/08 12:02:08;;;;;;;8.18;6.22;;;;;;;37.88;20.52;100863.05;2360914;82;25876;-75
2021/09/08 12:05:39;;;;;;;11.38;5.95;;;;;;;38.10;20.49;100865.34;2260484;85;25908;-76
2021/09/08 12:09:14;;;;;;;10.82;5.92;;;;;;;38.17;20.34;100865.19;2260736;86;25639;-74
2021/09/08 12:12:44;;;;;;;7.05;6.35;;;;;;;38.28;20.34;100866.02;2259268;85;25516;-77
2021/09/08 12:16:05;;;;;;;7.35;6.03;;;;;;;38.29;20.33;100858.70;2265319;87;25711;-77
2021/09/08 12:19:38;;;;;;;6.97;6.28;;;;;;;38.38;20.46;100859.31;2267770;87;25679;-75
2021/09/08 12:22:59;;;;;;;10.98;6.08;;;;;;;38.26;20.24;100858.97;2267920;87;26203;-78
2021/09/08 12:26:20;;;;;;;6.60;6.00;;;;;;;37.46;20.46;100858.80;2264846;85;25970;-75
2021/09/08 12:29:46;;;;;;;10.70;6.55;;;;;;;36.96;21.12;100851.97;2269174;87;25837;-75
2021/09/08 12:33:08;;;;;;;7.53;6.30;;;;;;;36.73;21.58;100853.33;2269861;87;25796;-76
2021/09/08 12:36:29;;;;;;;7.33;6.70;;;;;;;36.83;21.84;100849.39;2265117;87;25781;-82
2021/09/08 12:39:53;;;;;;;10.18;7.22;;;;;;;37.03;21.62;100850.05;2253593;87;26061;-75
2021/09/08 12:43:30;;;;;;;10.15;6.58;;;;;;;36.78;21.03;100845.66;2250812;87;25297;-83
2021/09/08 12:46:51;;;;;;;9.00;7.03;;;;;;;35.60;21.85;100832.95;2252294;87;25805;-80
2021/09/08 12:50:12;;;;;;;6.87;6.17;;;;;;;35.02;22.50;100829.06;2252825;87;25892;-78
2021/09/08 12:53:39;;;;;;;10.28;6.58;;;;;;;35.13;23.13;100825.08;2265866;84;25672;-83
2021/09/08 12:57:22;;;;;;;6.60;6.10;;;;;;;35.39;22.86;100825.03;2327476;82;25734;-78
2021/09/08 13:00:51;;;;;;;7.95;6.50;;;;;;;35.50;23.05;100812.89;2418807;77;25604;-79
2021/09/08 13:04:12;;;;;;;7.05;6.40;;;;;;;35.61;23.23;100813.51;2494927;77;25648;-79
2021/09/08 13:07:39;;;;;;;7.40;6.50;;;;;;;35.61;23.29;100808.08;2487397;79;25692;-78
2021/09/08 13:11:00;;;;;;;20.05;7.50;;;;;;;35.52;23.39;100801.98;2489295;78;26117;-80
2021/09/08 13:14:47;;;;;;;12.73;8.10;;;;;;;35.40;23.52;100796.94;2500273;77;25566;-86
2021/09/08 13:18:08;;;;;;;7.60;6.95;;;;;;;34.48;23.83;100802.15;2530580;77;25648;-89
2021/09/08 13:21:31;;;;;;;10.13;6.90;;;;;;;34.22;24.55;100794.48;2536596;77;25632;-79
2021/09/08 13:24:52;;;;;;;7.72;6.17;;;;;;;33.50;25.12;100788.02;2536068;77;25643;-78
2021/09/08 13:28:25;;;;;;;7.97;7.17;;;;;;;33.36;25.75;100783.97;2516059;77;26280;-79
2021/09/08 13:31:52;;;;;;;7.97;7.22;;;;;;;33.49;25.86;100783.58;2493054;79;25915;-80
2021/09/08 13:35:19;;;;;;;8.88;6.87;;;;;;;33.74;25.73;100773.34;2490076;79;25660;-80
2021/09/08 13:38:40;;;;;;;13.15;7.53;;;;;;;33.44;26.00;100765.89;2494261;79;26062;-81
2021/09/08 13:42:01;;;;;;;19.95;9.90;;;;;;;33.60;26.18;100767.50;2497320;79;25538;-81
2021/09/08 13:45:23;;;;;;;20.55;9.65;;;;;;;33.65;26.42;100763.16;2497152;79;25589;-83
2021/09/08 13:48:50;;;;;;;7.62;6.75;;;;;;;33.71;26.78;100757.80;2497612;79;25641;-80
2021/09/08 13:52:14;;;;;;;8.58;6.78;;;;;;;33.84;26.31;100752.81;2477254;77;25612;-81
2021/09/08 13:55:46;;;;;;;8.68;6.60;;;;;;;33.07;25.96;100738.08;2493243;79;26263;-79
2021/09/08 13:59:13;;;;;;;7.53;6.05;;;;;;;32.80;26.16;100737.98;2466911;78;25897;-77
2021/09/08 14:02:46;;;;;;;13.53;7.10;;;;;;;32.52;26.41;100740.23;2472977;79;26035;-82
2021/09/08 14:06:26;;;;;;;8.90;6.90;;;;;;;32.44;26.67;100739.36;2474806;78;26104;-78
2021/09/08 14:09:50;;;;;;;12.63;6.78;;;;;;;32.35;26.90;100733.62;2465087;79;25929;-82
2021/09/08 14:13:30;;;;;;;7.80;6.65;;;;;;;32.22;26.98;100731.67;2467252;78;25699;-83
2021/09/08 14:16:51;;;;;;;7.03;6.45;;;;;;;32.35;27.04;100727.75;2434879;80;25732;-80
2021/09/08 14:20:18;;;;;;;14.03;7.17;;;;;;;32.43;27.03;100726.84;2437853;80;25620;-79
2021/09/08 14:23:53;;;;;;;8.25;6.62;;;;;;;32.60;27.22;100731.19;2434803;80;25767;-78
2021/09/08 14:27:23;;;;;;;17.77;6.65;;;;;;;32.69;26.91;100730.58;2413889;80;26166;-79
2021/09/08 14:30:50;;;;;;;7.62;6.35;;;;;;;32.44;27.07;100724.52;2444247;79;25692;-77
2021/09/08 14:34:28;;;;;;;8.48;6.75;;;;;;;32.34;27.37;100726.51;2442666;80;25707;-76
2021/09/08 14:37:51;;;;;;;8.53;7.65;;;;;;;32.33;27.37;100714.85;2444662;79;25625;-83
2021/09/08 14:41:21;;;;;;;9.53;6.62;;;;;;;31.78;27.44;100719.50;2441323;80;25798;-81
2021/09/08 14:44:42;;;;;;;11.53;7.33;;;;;;;31.30;27.87;100710.62;2446505;80;25703;-78
2021/09/08 14:48:10;;;;;;;11.20;7.22;;;;;;;31.01;28.56;100707.75;2448962;80;25655;-77
2021/09/08 14:51:37;;;;;;;9.93;8.03;;;;;;;30.78;29.03;100704.13;2440626;79;25884;-81
2021/09/08 14:55:08;;;;;;;6.83;6.22;;;;;;;29.82;29.87;100706.94;2451754;79;25957;-76
2021/09/08 14:58:31;;;;;;;9.40;6.25;;;;;;;29.18;30.36;100694.02;2481431;79;25662;-88
2021/09/08 15:01:54;;;;;;;7.72;6.87;;;;;;;29.17;30.54;100693.63;2415282;77;27064;-76
2021/09/08 15:05:25;;;;;;;7.37;6.70;;;;;;;29.20;30.71;100685.42;2393854;82;25874;-77
2021/09/08 15:08:46;;;;;;;6.97;6.25;;;;;;;29.16;30.91;100682.50;2356580;82;25528;-79
2021/09/08 15:12:09;;;;;;;9.57;7.40;;;;;;;28.93;31.14;100679.08;2396887;82;25646;-76
2021/09/08 15:15:30;;;;;;;13.22;7.47;;;;;;;28.70;31.65;100675.27;2396340;82;26106;-85
2021/09/08 15:18:53;;;;;;;8.75;7.67;;;;;;;28.57;31.96;100673.63;2396936;82;25653;-76
2021/09/08 15:22:14;;;;;;;9.53;7.05;;;;;;;28.27;32.56;100670.50;2392672;82;25626;-77
2021/09/08 15:25:34;;;;;;;15.75;6.65;;;;;;;27.90;33.09;100669.45;2398738;82;25622;-76
2021/09/08 15:28:58;;;;;;;7.55;6.35;;;;;;;27.55;33.35;100661.11;2398551;82;26006;-77
2021/09/08 15:32:19;;;;;;;7.22;6.35;;;;;;;27.40;33.63;100660.87;2398323;82;25646;-76
2021/09/08 15:35:41;;;;;;;7.67;7.03;;;;;;;27.34;33.73;100655.77;2395153;82;25935;-80
2021/09/08 15:39:05;;;;;;;9.25;7.03;;;;;;;27.22;33.81;100654.48;2399134;82;25700;-84
2021/09/08 15:42:25;;;;;;;16.52;7.42;;;;;;;27.20;33.91;100646.98;2399142;82;25645;-84
2021/09/08 15:45:46;;;;;;;14.10;7.35;;;;;;;27.13;34.00;100649.50;2398248;82;25617;-76
2021/09/08 15:49:07;;;;;;;7.05;6.53;;;;;;;26.84;34.26;100643.50;2398672;82;25713;-77
2021/09/08 15:52:28;;;;;;;7.72;6.92;;;;;;;26.83;34.50;100637.28;2398796;82;26306;-87
2021/09/08 15:55:51;;;;;;;10.18;6.87;;;;;;;26.89;34.50;100640.63;2398407;82;25724;-88
2021/09/08 15:59:12;;;;;;;10.15;6.92;;;;;;;26.78;34.63;100637.92;2398970;82;25168;-79
2021/09/08 16:02:33;;;;;;;9.93;7.83;;;;;;;26.61;35.35;100633.23;2396587;82;26237;-85
2021/09/08 16:05:54;;;;;;;9.30;7.37;;;;;;;26.35;35.81;100631.52;2389104;82;25624;-75
2021/09/08 16:09:14;;;;;;;8.93;7.67;;;;;;;26.14;36.27;100634.99;2374172;82;25599;-81
2021/09/08 16:12:36;;;;;;;14.00;7.45;;;;;;;25.95;36.83;100632.58;2371953;82;25816;-88
2021/09/08 16:15:58;;;;;;;10.38;7.83;;;;;;;25.84;37.23;100627.16;2392915;79;25931;-84
2021/09/08 16:19:19;;;;;;;11.68;7.92;;;;;;;25.85;37.58;100633.36;2418583;81;26022;-80